sensor_id;sensor_type;location;lat;lon;timestamp;P1;durP1;ratioP1;P2;durP2;ratioP2
45103;SDS011;30865;51.288;4.572;2023-05-29T00:02:12;4.60;;;3.13;;
45103;SDS011;30865;51.288;4.572;2023-05-29T00:04:38;7.18;;;2.97;;
45103;SDS011;30865;51.288;4.572;2023-05-29T00:07:05;4.95;;;2.90;;
45103;SDS011;30865;51.288;4.572;2023-05-29T00:09:30;11.50;;;4.28;;
45103;SDS011;30865;51.288;4.572;2023-05-29T00:11:56;11.93;;;3.97;;
45103;SDS011;30865;51.288;4.572;2023-05-29T00:14:22;17.88;;;4.25;;
45103;SDS011;30865;51.288;4.572;2023-05-29T00:16:49;12.00;;;4.13;;
45103;SDS011;30865;51.288;4.572;2023-05-29T00:19:15;10.93;;;4.15;;
45103;SDS011;30865;51.288;4.572;2023-05-29T00:21:48;8.00;;;3.80;;
45103;SDS011;30865;51.288;4.572;2023-05-29T00:24:14;7.97;;;4.05;;
45103;SDS011;30865;51.288;4.572;2023-05-29T00:26:41;7.25;;;4.20;;
45103;SDS011;30865;51.288;4.572;2023-05-29T00:29:06;8.63;;;4.10;;
45103;SDS011;30865;51.288;4.572;2023-05-29T00:31:32;6.93;;;4.25;;
45103;SDS011;30865;51.288;4.572;2023-05-29T00:33:57;6.40;;;3.65;;
45103;SDS011;30865;51.288;4.572;2023-05-29T00:36:23;6.65;;;4.03;;
45103;SDS011;30865;51.288;4.572;2023-05-29T00:38:50;9.60;;;4.00;;
45103;SDS011;30865;51.288;4.572;2023-05-29T00:41:15;9.55;;;3.72;;
45103;SDS011;30865;51.288;4.572;2023-05-29T00:43:41;9.10;;;4.43;;
45103;SDS011;30865;51.288;4.572;2023-05-29T00:46:08;6.80;;;3.88;;
45103;SDS011;30865;51.288;4.572;2023-05-29T00:48:37;8.45;;;3.60;;
45103;SDS011;30865;51.288;4.572;2023-05-29T00:51:02;6.72;;;3.20;;
45103;SDS011;30865;51.288;4.572;2023-05-29T00:53:29;9.98;;;3.58;;
45103;SDS011;30865;51.288;4.572;2023-05-29T00:55:55;4.68;;;3.65;;
45103;SDS011;30865;51.288;4.572;2023-05-29T00:58:20;8.80;;;4.45;;
45103;SDS011;30865;51.288;4.572;2023-05-29T01:00:46;13.45;;;4.10;;
45103;SDS011;30865;51.288;4.572;2023-05-29T01:03:12;7.22;;;3.58;;
45103;SDS011;30865;51.288;4.572;2023-05-29T01:05:42;10.60;;;3.75;;
45103;SDS011;30865;51.288;4.572;2023-05-29T01:08:08;6.97;;;3.58;;
45103;SDS011;30865;51.288;4.572;2023-05-29T01:10:35;7.20;;;3.63;;
45103;SDS011;30865;51.288;4.572;2023-05-29T01:13:08;7.55;;;3.42;;
45103;SDS011;30865;51.288;4.572;2023-05-29T01:15:41;4.68;;;2.90;;
45103;SDS011;30865;51.288;4.572;2023-05-29T01:20:52;6.78;;;3.70;;
45103;SDS011;30865;51.288;4.572;2023-05-29T01:28:48;8.75;;;3.33;;
45103;SDS011;30865;51.288;4.572;2023-05-29T01:31:17;6.82;;;3.13;;
45103;SDS011;30865;51.288;4.572;2023-05-29T01:33:54;8.98;;;3.47;;
45103;SDS011;30865;51.288;4.572;2023-05-29T01:38:48;7.72;;;3.10;;
45103;SDS011;30865;51.288;4.572;2023-05-29T01:41:18;7.15;;;3.28;;
45103;SDS011;30865;51.288;4.572;2023-05-29T01:43:46;8.13;;;3.00;;
45103;SDS011;30865;51.288;4.572;2023-05-29T01:46:13;7.57;;;4.07;;
45103;SDS011;30865;51.288;4.572;2023-05-29T01:48:40;6.28;;;3.17;;
45103;SDS011;30865;51.288;4.572;2023-05-29T01:51:06;9.65;;;3.92;;
45103;SDS011;30865;51.288;4.572;2023-05-29T01:53:33;8.40;;;3.30;;
45103;SDS011;30865;51.288;4.572;2023-05-29T01:55:58;7.60;;;3.42;;
45103;SDS011;30865;51.288;4.572;2023-05-29T01:58:24;7.45;;;3.22;;
45103;SDS011;30865;51.288;4.572;2023-05-29T02:00:51;6.78;;;3.05;;
45103;SDS011;30865;51.288;4.572;2023-05-29T02:03:17;5.32;;;2.95;;
45103;SDS011;30865;51.288;4.572;2023-05-29T02:05:42;7.35;;;3.50;;
45103;SDS011;30865;51.288;4.572;2023-05-29T02:08:08;6.57;;;3.72;;
45103;SDS011;30865;51.288;4.572;2023-05-29T02:10:33;7.55;;;3.30;;
45103;SDS011;30865;51.288;4.572;2023-05-29T02:13:09;5.53;;;3.05;;
45103;SDS011;30865;51.288;4.572;2023-05-29T02:15:34;7.07;;;2.67;;
45103;SDS011;30865;51.288;4.572;2023-05-29T02:18:00;6.78;;;3.08;;
45103;SDS011;30865;51.288;4.572;2023-05-29T02:20:26;8.13;;;2.95;;
45103;SDS011;30865;51.288;4.572;2023-05-29T02:22:52;7.07;;;3.22;;
45103;SDS011;30865;51.288;4.572;2023-05-29T02:25:17;4.53;;;2.78;;
45103;SDS011;30865;51.288;4.572;2023-05-29T02:27:43;4.72;;;2.70;;
45103;SDS011;30865;51.288;4.572;2023-05-29T02:30:09;5.10;;;3.08;;
45103;SDS011;30865;51.288;4.572;2023-05-29T02:32:35;7.35;;;4.40;;
45103;SDS011;30865;51.288;4.572;2023-05-29T02:35:01;6.35;;;3.13;;
45103;SDS011;30865;51.288;4.572;2023-05-29T02:37:27;3.63;;;2.90;;
45103;SDS011;30865;51.288;4.572;2023-05-29T02:39:53;8.05;;;2.75;;
45103;SDS011;30865;51.288;4.572;2023-05-29T02:42:18;5.53;;;3.03;;
45103;SDS011;30865;51.288;4.572;2023-05-29T02:44:44;6.07;;;2.72;;
45103;SDS011;30865;51.288;4.572;2023-05-29T02:47:09;7.38;;;2.97;;
45103;SDS011;30865;51.288;4.572;2023-05-29T02:49:35;5.05;;;2.75;;
45103;SDS011;30865;51.288;4.572;2023-05-29T02:52:00;6.10;;;2.80;;
45103;SDS011;30865;51.288;4.572;2023-05-29T02:54:26;7.53;;;3.00;;
45103;SDS011;30865;51.288;4.572;2023-05-29T02:56:51;4.28;;;2.75;;
45103;SDS011;30865;51.288;4.572;2023-05-29T02:59:17;7.20;;;2.88;;
45103;SDS011;30865;51.288;4.572;2023-05-29T03:01:43;6.75;;;2.80;;
45103;SDS011;30865;51.288;4.572;2023-05-29T03:04:09;4.68;;;2.97;;
45103;SDS011;30865;51.288;4.572;2023-05-29T03:06:35;6.40;;;2.78;;
45103;SDS011;30865;51.288;4.572;2023-05-29T03:09:01;3.42;;;2.65;;
45103;SDS011;30865;51.288;4.572;2023-05-29T03:11:29;5.15;;;2.85;;
45103;SDS011;30865;51.288;4.572;2023-05-29T03:13:56;5.20;;;3.00;;
45103;SDS011;30865;51.288;4.572;2023-05-29T03:16:21;4.85;;;2.90;;
45103;SDS011;30865;51.288;4.572;2023-05-29T03:18:46;6.15;;;2.88;;
45103;SDS011;30865;51.288;4.572;2023-05-29T03:21:12;5.65;;;3.00;;
45103;SDS011;30865;51.288;4.572;2023-05-29T03:23:38;8.60;;;3.42;;
45103;SDS011;30865;51.288;4.572;2023-05-29T03:26:04;8.60;;;3.30;;
45103;SDS011;30865;51.288;4.572;2023-05-29T03:28:30;5.03;;;2.92;;
45103;SDS011;30865;51.288;4.572;2023-05-29T03:30:56;6.70;;;2.72;;
45103;SDS011;30865;51.288;4.572;2023-05-29T03:33:22;6.50;;;3.58;;
45103;SDS011;30865;51.288;4.572;2023-05-29T03:35:48;4.22;;;2.65;;
45103;SDS011;30865;51.288;4.572;2023-05-29T03:38:13;7.50;;;2.60;;
45103;SDS011;30865;51.288;4.572;2023-05-29T03:40:39;7.85;;;3.15;;
45103;SDS011;30865;51.288;4.572;2023-05-29T03:43:04;4.85;;;2.95;;
45103;SDS011;30865;51.288;4.572;2023-05-29T03:45:30;9.25;;;3.53;;
45103;SDS011;30865;51.288;4.572;2023-05-29T03:47:56;7.03;;;2.95;;
45103;SDS011;30865;51.288;4.572;2023-05-29T03:50:21;6.30;;;3.10;;
45103;SDS011;30865;51.288;4.572;2023-05-29T03:52:47;11.80;;;3.10;;
45103;SDS011;30865;51.288;4.572;2023-05-29T03:55:12;6.95;;;2.80;;
45103;SDS011;30865;51.288;4.572;2023-05-29T03:57:39;7.82;;;3.08;;
45103;SDS011;30865;51.288;4.572;2023-05-29T04:00:06;7.00;;;3.45;;
45103;SDS011;30865;51.288;4.572;2023-05-29T04:02:34;4.57;;;2.80;;
45103;SDS011;30865;51.288;4.572;2023-05-29T04:05:00;5.60;;;3.15;;
45103;SDS011;30865;51.288;4.572;2023-05-29T04:07:26;8.82;;;3.80;;
45103;SDS011;30865;51.288;4.572;2023-05-29T04:09:51;8.30;;;3.40;;
45103;SDS011;30865;51.288;4.572;2023-05-29T04:12:27;5.55;;;3.08;;
45103;SDS011;30865;51.288;4.572;2023-05-29T04:14:52;5.10;;;3.15;;
45103;SDS011;30865;51.288;4.572;2023-05-29T04:17:18;7.53;;;3.28;;
45103;SDS011;30865;51.288;4.572;2023-05-29T04:19:43;7.75;;;2.92;;
45103;SDS011;30865;51.288;4.572;2023-05-29T04:22:09;4.43;;;2.45;;
45103;SDS011;30865;51.288;4.572;2023-05-29T04:24:38;6.38;;;3.17;;
45103;SDS011;30865;51.288;4.572;2023-05-29T04:27:03;5.45;;;2.67;;
45103;SDS011;30865;51.288;4.572;2023-05-29T04:29:29;7.53;;;3.78;;
45103;SDS011;30865;51.288;4.572;2023-05-29T04:31:55;5.05;;;2.78;;
45103;SDS011;30865;51.288;4.572;2023-05-29T04:34:21;5.18;;;3.30;;
45103;SDS011;30865;51.288;4.572;2023-05-29T04:36:47;5.28;;;3.10;;
45103;SDS011;30865;51.288;4.572;2023-05-29T04:39:12;8.45;;;3.55;;
45103;SDS011;30865;51.288;4.572;2023-05-29T04:41:39;9.77;;;3.95;;
45103;SDS011;30865;51.288;4.572;2023-05-29T04:44:05;6.72;;;3.78;;
45103;SDS011;30865;51.288;4.572;2023-05-29T04:46:31;11.32;;;4.38;;
45103;SDS011;30865;51.288;4.572;2023-05-29T04:48:56;8.15;;;3.85;;
45103;SDS011;30865;51.288;4.572;2023-05-29T04:51:22;10.07;;;4.38;;
45103;SDS011;30865;51.288;4.572;2023-05-29T04:53:48;11.27;;;4.45;;
45103;SDS011;30865;51.288;4.572;2023-05-29T04:56:16;7.95;;;3.67;;
45103;SDS011;30865;51.288;4.572;2023-05-29T04:58:43;7.28;;;3.90;;
45103;SDS011;30865;51.288;4.572;2023-05-29T05:01:09;6.95;;;3.67;;
45103;SDS011;30865;51.288;4.572;2023-05-29T05:03:39;5.63;;;3.17;;
45103;SDS011;30865;51.288;4.572;2023-05-29T05:06:08;8.50;;;3.60;;
45103;SDS011;30865;51.288;4.572;2023-05-29T05:08:34;5.75;;;3.35;;
45103;SDS011;30865;51.288;4.572;2023-05-29T05:10:59;8.90;;;3.53;;
45103;SDS011;30865;51.288;4.572;2023-05-29T05:13:26;6.70;;;3.97;;
45103;SDS011;30865;51.288;4.572;2023-05-29T05:15:52;7.82;;;4.00;;
45103;SDS011;30865;51.288;4.572;2023-05-29T05:18:18;6.93;;;3.33;;
45103;SDS011;30865;51.288;4.572;2023-05-29T05:20:44;8.48;;;3.70;;
45103;SDS011;30865;51.288;4.572;2023-05-29T05:23:10;7.93;;;4.15;;
45103;SDS011;30865;51.288;4.572;2023-05-29T05:25:35;9.70;;;4.20;;
45103;SDS011;30865;51.288;4.572;2023-05-29T05:28:02;7.82;;;3.90;;
45103;SDS011;30865;51.288;4.572;2023-05-29T05:30:31;12.63;;;4.47;;
45103;SDS011;30865;51.288;4.572;2023-05-29T05:32:57;7.22;;;3.60;;
45103;SDS011;30865;51.288;4.572;2023-05-29T05:35:23;8.65;;;4.10;;
45103;SDS011;30865;51.288;4.572;2023-05-29T05:37:48;10.80;;;3.67;;
45103;SDS011;30865;51.288;4.572;2023-05-29T05:40:14;8.18;;;3.40;;
45103;SDS011;30865;51.288;4.572;2023-05-29T05:42:40;7.80;;;3.83;;
45103;SDS011;30865;51.288;4.572;2023-05-29T05:45:05;8.82;;;4.72;;
45103;SDS011;30865;51.288;4.572;2023-05-29T05:47:32;8.57;;;4.10;;
45103;SDS011;30865;51.288;4.572;2023-05-29T05:49:58;6.05;;;3.63;;
45103;SDS011;30865;51.288;4.572;2023-05-29T05:52:23;5.97;;;3.47;;
45103;SDS011;30865;51.288;4.572;2023-05-29T05:54:50;6.47;;;3.20;;
45103;SDS011;30865;51.288;4.572;2023-05-29T05:57:16;8.55;;;3.75;;
45103;SDS011;30865;51.288;4.572;2023-05-29T05:59:41;7.75;;;4.05;;
45103;SDS011;30865;51.288;4.572;2023-05-29T06:02:07;6.68;;;3.72;;
45103;SDS011;30865;51.288;4.572;2023-05-29T06:04:32;5.47;;;3.05;;
45103;SDS011;30865;51.288;4.572;2023-05-29T06:06:58;7.50;;;3.88;;
45103;SDS011;30865;51.288;4.572;2023-05-29T06:09:23;8.70;;;3.50;;
45103;SDS011;30865;51.288;4.572;2023-05-29T06:11:50;7.50;;;4.22;;
45103;SDS011;30865;51.288;4.572;2023-05-29T06:14:15;6.32;;;3.33;;
45103;SDS011;30865;51.288;4.572;2023-05-29T06:16:41;6.22;;;3.65;;
45103;SDS011;30865;51.288;4.572;2023-05-29T06:19:08;8.85;;;3.22;;
45103;SDS011;30865;51.288;4.572;2023-05-29T06:21:33;6.10;;;2.97;;
45103;SDS011;30865;51.288;4.572;2023-05-29T06:24:02;6.25;;;3.85;;
45103;SDS011;30865;51.288;4.572;2023-05-29T06:26:29;5.97;;;3.50;;
45103;SDS011;30865;51.288;4.572;2023-05-29T06:28:55;7.22;;;3.25;;
45103;SDS011;30865;51.288;4.572;2023-05-29T06:31:20;5.68;;;3.50;;
45103;SDS011;30865;51.288;4.572;2023-05-29T06:33:46;4.13;;;2.88;;
45103;SDS011;30865;51.288;4.572;2023-05-29T06:36:11;7.30;;;4.15;;
45103;SDS011;30865;51.288;4.572;2023-05-29T06:38:38;6.00;;;3.20;;
45103;SDS011;30865;51.288;4.572;2023-05-29T06:41:04;5.22;;;3.40;;
45103;SDS011;30865;51.288;4.572;2023-05-29T06:43:29;5.72;;;3.65;;
45103;SDS011;30865;51.288;4.572;2023-05-29T06:45:55;8.45;;;3.63;;
45103;SDS011;30865;51.288;4.572;2023-05-29T06:48:20;6.15;;;3.15;;
45103;SDS011;30865;51.288;4.572;2023-05-29T06:50:47;6.03;;;3.83;;
45103;SDS011;30865;51.288;4.572;2023-05-29T06:53:12;5.88;;;3.10;;
45103;SDS011;30865;51.288;4.572;2023-05-29T06:55:38;8.60;;;2.90;;
45103;SDS011;30865;51.288;4.572;2023-05-29T06:58:08;6.95;;;3.72;;
45103;SDS011;30865;51.288;4.572;2023-05-29T07:00:34;5.38;;;3.10;;
45103;SDS011;30865;51.288;4.572;2023-05-29T07:02:59;7.68;;;3.17;;
45103;SDS011;30865;51.288;4.572;2023-05-29T07:05:26;6.40;;;3.60;;
45103;SDS011;30865;51.288;4.572;2023-05-29T07:07:52;5.68;;;2.83;;
45103;SDS011;30865;51.288;4.572;2023-05-29T07:10:17;5.28;;;2.97;;
45103;SDS011;30865;51.288;4.572;2023-05-29T07:12:43;5.32;;;2.85;;
45103;SDS011;30865;51.288;4.572;2023-05-29T07:15:10;6.30;;;3.00;;
45103;SDS011;30865;51.288;4.572;2023-05-29T07:17:36;8.82;;;3.42;;
45103;SDS011;30865;51.288;4.572;2023-05-29T07:20:01;6.05;;;2.63;;
45103;SDS011;30865;51.288;4.572;2023-05-29T07:22:27;4.00;;;2.90;;
45103;SDS011;30865;51.288;4.572;2023-05-29T07:24:53;5.75;;;3.20;;
45103;SDS011;30865;51.288;4.572;2023-05-29T07:27:19;4.65;;;2.88;;
45103;SDS011;30865;51.288;4.572;2023-05-29T07:29:44;5.72;;;2.83;;
45103;SDS011;30865;51.288;4.572;2023-05-29T07:32:09;7.32;;;3.15;;
45103;SDS011;30865;51.288;4.572;2023-05-29T07:34:35;5.55;;;3.08;;
45103;SDS011;30865;51.288;4.572;2023-05-29T07:37:04;7.10;;;3.15;;
45103;SDS011;30865;51.288;4.572;2023-05-29T07:39:31;7.53;;;3.47;;
45103;SDS011;30865;51.288;4.572;2023-05-29T07:41:58;4.97;;;2.70;;
45103;SDS011;30865;51.288;4.572;2023-05-29T07:44:24;5.68;;;2.67;;
45103;SDS011;30865;51.288;4.572;2023-05-29T07:46:50;6.05;;;3.50;;
45103;SDS011;30865;51.288;4.572;2023-05-29T07:49:15;7.05;;;3.95;;
45103;SDS011;30865;51.288;4.572;2023-05-29T07:51:41;6.05;;;2.50;;
45103;SDS011;30865;51.288;4.572;2023-05-29T07:54:07;6.03;;;2.92;;
45103;SDS011;30865;51.288;4.572;2023-05-29T07:56:32;5.88;;;3.17;;
45103;SDS011;30865;51.288;4.572;2023-05-29T07:58:58;7.35;;;3.03;;
45103;SDS011;30865;51.288;4.572;2023-05-29T08:01:25;6.40;;;2.58;;
45103;SDS011;30865;51.288;4.572;2023-05-29T08:03:51;5.20;;;3.30;;
45103;SDS011;30865;51.288;4.572;2023-05-29T08:06:17;5.78;;;2.97;;
45103;SDS011;30865;51.288;4.572;2023-05-29T08:08:43;5.22;;;3.17;;
45103;SDS011;30865;51.288;4.572;2023-05-29T08:11:09;6.05;;;3.10;;
45103;SDS011;30865;51.288;4.572;2023-05-29T08:13:35;5.28;;;2.95;;
45103;SDS011;30865;51.288;4.572;2023-05-29T08:16:01;4.22;;;3.33;;
45103;SDS011;30865;51.288;4.572;2023-05-29T08:18:26;6.88;;;3.53;;
45103;SDS011;30865;51.288;4.572;2023-05-29T08:20:52;5.35;;;3.58;;
45103;SDS011;30865;51.288;4.572;2023-05-29T08:23:18;9.48;;;4.20;;
45103;SDS011;30865;51.288;4.572;2023-05-29T08:25:44;7.05;;;3.35;;
45103;SDS011;30865;51.288;4.572;2023-05-29T08:28:10;3.95;;;3.28;;
45103;SDS011;30865;51.288;4.572;2023-05-29T08:30:35;5.95;;;2.78;;
45103;SDS011;30865;51.288;4.572;2023-05-29T08:33:02;6.18;;;2.83;;
45103;SDS011;30865;51.288;4.572;2023-05-29T08:35:28;8.60;;;3.25;;
45103;SDS011;30865;51.288;4.572;2023-05-29T08:37:53;6.18;;;2.75;;
45103;SDS011;30865;51.288;4.572;2023-05-29T08:40:19;4.35;;;2.72;;
45103;SDS011;30865;51.288;4.572;2023-05-29T08:42:47;4.95;;;2.78;;
45103;SDS011;30865;51.288;4.572;2023-05-29T08:47:43;5.35;;;3.35;;
45103;SDS011;30865;51.288;4.572;2023-05-29T08:50:11;5.18;;;3.38;;
45103;SDS011;30865;51.288;4.572;2023-05-29T08:52:37;6.32;;;2.78;;
45103;SDS011;30865;51.288;4.572;2023-05-29T08:55:07;4.65;;;3.00;;
45103;SDS011;30865;51.288;4.572;2023-05-29T08:57:32;5.45;;;2.92;;
45103;SDS011;30865;51.288;4.572;2023-05-29T08:59:59;5.07;;;3.40;;
45103;SDS011;30865;51.288;4.572;2023-05-29T09:02:26;12.30;;;3.45;;
45103;SDS011;30865;51.288;4.572;2023-05-29T09:04:52;4.22;;;2.53;;
45103;SDS011;30865;51.288;4.572;2023-05-29T09:07:19;6.68;;;3.20;;
45103;SDS011;30865;51.288;4.572;2023-05-29T09:09:45;5.90;;;3.38;;
45103;SDS011;30865;51.288;4.572;2023-05-29T09:12:11;6.07;;;2.85;;
45103;SDS011;30865;51.288;4.572;2023-05-29T09:14:41;4.47;;;2.80;;
45103;SDS011;30865;51.288;4.572;2023-05-29T09:17:08;6.47;;;2.97;;
45103;SDS011;30865;51.288;4.572;2023-05-29T09:19:35;4.75;;;2.58;;
45103;SDS011;30865;51.288;4.572;2023-05-29T09:24:34;8.40;;;2.97;;
45103;SDS011;30865;51.288;4.572;2023-05-29T09:27:04;4.07;;;2.80;;
45103;SDS011;30865;51.288;4.572;2023-05-29T09:29:33;7.63;;;3.33;;
45103;SDS011;30865;51.288;4.572;2023-05-29T09:32:03;7.13;;;2.95;;
45103;SDS011;30865;51.288;4.572;2023-05-29T09:34:36;3.92;;;2.35;;
45103;SDS011;30865;51.288;4.572;2023-05-29T09:37:03;5.78;;;2.97;;
45103;SDS011;30865;51.288;4.572;2023-05-29T09:42:07;7.28;;;3.15;;
45103;SDS011;30865;51.288;4.572;2023-05-29T09:44:34;5.22;;;2.88;;
45103;SDS011;30865;51.288;4.572;2023-05-29T09:46:59;5.68;;;2.90;;
45103;SDS011;30865;51.288;4.572;2023-05-29T09:49:25;6.90;;;3.35;;
45103;SDS011;30865;51.288;4.572;2023-05-29T09:51:54;5.75;;;2.88;;
45103;SDS011;30865;51.288;4.572;2023-05-29T09:54:20;4.28;;;2.63;;
45103;SDS011;30865;51.288;4.572;2023-05-29T09:56:46;5.32;;;2.85;;
45103;SDS011;30865;51.288;4.572;2023-05-29T09:59:13;6.40;;;2.83;;
45103;SDS011;30865;51.288;4.572;2023-05-29T10:01:40;5.28;;;2.92;;
45103;SDS011;30865;51.288;4.572;2023-05-29T10:04:09;8.57;;;2.73;;
45103;SDS011;30865;51.288;4.572;2023-05-29T10:06:40;5.50;;;2.90;;
45103;SDS011;30865;51.288;4.572;2023-05-29T10:09:09;6.22;;;2.33;;
45103;SDS011;30865;51.288;4.572;2023-05-29T10:11:43;6.68;;;3.10;;
45103;SDS011;30865;51.288;4.572;2023-05-29T10:14:14;4.75;;;2.75;;
45103;SDS011;30865;51.288;4.572;2023-05-29T10:16:46;4.63;;;2.55;;
45103;SDS011;30865;51.288;4.572;2023-05-29T10:19:17;4.93;;;2.92;;
45103;SDS011;30865;51.288;4.572;2023-05-29T10:21:47;4.65;;;3.00;;
45103;SDS011;30865;51.288;4.572;2023-05-29T10:24:14;7.03;;;3.10;;
45103;SDS011;30865;51.288;4.572;2023-05-29T10:26:40;4.28;;;2.58;;
45103;SDS011;30865;51.288;4.572;2023-05-29T10:35:05;3.65;;;2.20;;
45103;SDS011;30865;51.288;4.572;2023-05-29T10:40:11;4.97;;;2.80;;
45103;SDS011;30865;51.288;4.572;2023-05-29T10:42:40;4.97;;;2.58;;
45103;SDS011;30865;51.288;4.572;2023-05-29T10:50:41;4.50;;;2.60;;
45103;SDS011;30865;51.288;4.572;2023-05-29T10:53:23;4.35;;;3.00;;
45103;SDS011;30865;51.288;4.572;2023-05-29T10:55:51;4.63;;;2.65;;
45103;SDS011;30865;51.288;4.572;2023-05-29T10:58:20;6.53;;;2.63;;
45103;SDS011;30865;51.288;4.572;2023-05-29T11:00:48;4.47;;;2.05;;
45103;SDS011;30865;51.288;4.572;2023-05-29T11:03:14;4.93;;;2.45;;
45103;SDS011;30865;51.288;4.572;2023-05-29T11:06:00;7.80;;;2.90;;
45103;SDS011;30865;51.288;4.572;2023-05-29T11:08:56;7.75;;;2.83;;
45103;SDS011;30865;51.288;4.572;2023-05-29T11:13:53;5.15;;;2.63;;
45103;SDS011;30865;51.288;4.572;2023-05-29T11:16:35;4.75;;;2.17;;
45103;SDS011;30865;51.288;4.572;2023-05-29T11:19:05;4.38;;;2.55;;
45103;SDS011;30865;51.288;4.572;2023-05-29T11:21:46;6.20;;;3.15;;
45103;SDS011;30865;51.288;4.572;2023-05-29T11:24:22;5.43;;;3.15;;
45103;SDS011;30865;51.288;4.572;2023-05-29T11:26:54;4.00;;;2.13;;
45103;SDS011;30865;51.288;4.572;2023-05-29T11:29:27;4.72;;;2.55;;
45103;SDS011;30865;51.288;4.572;2023-05-29T11:32:03;3.65;;;1.90;;
45103;SDS011;30865;51.288;4.572;2023-05-29T11:34:30;4.75;;;2.65;;
45103;SDS011;30865;51.288;4.572;2023-05-29T11:36:58;3.85;;;2.28;;
45103;SDS011;30865;51.288;4.572;2023-05-29T11:39:24;5.80;;;2.38;;
45103;SDS011;30865;51.288;4.572;2023-05-29T11:41:51;6.47;;;2.47;;
45103;SDS011;30865;51.288;4.572;2023-05-29T11:44:17;5.15;;;2.22;;
45103;SDS011;30865;51.288;4.572;2023-05-29T11:46:43;4.28;;;2.47;;
45103;SDS011;30865;51.288;4.572;2023-05-29T11:49:09;2.75;;;2.08;;
45103;SDS011;30865;51.288;4.572;2023-05-29T11:51:34;4.72;;;1.95;;
45103;SDS011;30865;51.288;4.572;2023-05-29T11:54:00;6.68;;;2.53;;
45103;SDS011;30865;51.288;4.572;2023-05-29T11:56:27;4.53;;;2.03;;
45103;SDS011;30865;51.288;4.572;2023-05-29T11:58:54;3.83;;;2.70;;
45103;SDS011;30865;51.288;4.572;2023-05-29T12:01:21;3.25;;;1.90;;
45103;SDS011;30865;51.288;4.572;2023-05-29T12:03:48;4.95;;;2.65;;
45103;SDS011;30865;51.288;4.572;2023-05-29T12:06:14;5.45;;;2.40;;
45103;SDS011;30865;51.288;4.572;2023-05-29T12:08:40;4.72;;;1.63;;
45103;SDS011;30865;51.288;4.572;2023-05-29T12:11:06;3.20;;;2.20;;
45103;SDS011;30865;51.288;4.572;2023-05-29T12:13:32;4.65;;;2.00;;
45103;SDS011;30865;51.288;4.572;2023-05-29T12:16:00;2.67;;;1.88;;
45103;SDS011;30865;51.288;4.572;2023-05-29T12:18:28;5.47;;;2.05;;
45103;SDS011;30865;51.288;4.572;2023-05-29T12:21:01;5.22;;;3.17;;
45103;SDS011;30865;51.288;4.572;2023-05-29T12:23:28;5.55;;;2.25;;
45103;SDS011;30865;51.288;4.572;2023-05-29T12:25:54;5.90;;;2.45;;
45103;SDS011;30865;51.288;4.572;2023-05-29T12:28:21;3.65;;;2.13;;
45103;SDS011;30865;51.288;4.572;2023-05-29T12:30:47;3.72;;;2.20;;
45103;SDS011;30865;51.288;4.572;2023-05-29T12:33:30;4.78;;;2.10;;
45103;SDS011;30865;51.288;4.572;2023-05-29T12:36:07;5.30;;;2.15;;
45103;SDS011;30865;51.288;4.572;2023-05-29T12:38:46;2.10;;;1.55;;
45103;SDS011;30865;51.288;4.572;2023-05-29T12:41:25;4.07;;;2.80;;
45103;SDS011;30865;51.288;4.572;2023-05-29T12:43:57;3.75;;;2.17;;
45103;SDS011;30865;51.288;4.572;2023-05-29T12:46:25;5.78;;;2.45;;
45103;SDS011;30865;51.288;4.572;2023-05-29T12:48:52;4.55;;;1.80;;
45103;SDS011;30865;51.288;4.572;2023-05-29T12:51:22;3.40;;;2.70;;
45103;SDS011;30865;51.288;4.572;2023-05-29T12:56:15;3.20;;;2.00;;
45103;SDS011;30865;51.288;4.572;2023-05-29T12:58:40;2.83;;;2.13;;
45103;SDS011;30865;51.288;4.572;2023-05-29T13:01:11;6.78;;;2.45;;
45103;SDS011;30865;51.288;4.572;2023-05-29T13:03:39;3.45;;;1.92;;
45103;SDS011;30865;51.288;4.572;2023-05-29T13:06:05;6.32;;;2.40;;
45103;SDS011;30865;51.288;4.572;2023-05-29T13:08:31;4.75;;;2.17;;
45103;SDS011;30865;51.288;4.572;2023-05-29T13:10:56;6.43;;;2.50;;
45103;SDS011;30865;51.288;4.572;2023-05-29T13:13:22;3.45;;;2.03;;
45103;SDS011;30865;51.288;4.572;2023-05-29T13:15:47;3.63;;;2.20;;
45103;SDS011;30865;51.288;4.572;2023-05-29T13:18:13;4.15;;;2.72;;
45103;SDS011;30865;51.288;4.572;2023-05-29T13:20:38;6.78;;;2.28;;
45103;SDS011;30865;51.288;4.572;2023-05-29T13:23:06;4.93;;;1.90;;
45103;SDS011;30865;51.288;4.572;2023-05-29T13:25:33;5.30;;;2.45;;
45103;SDS011;30865;51.288;4.572;2023-05-29T13:27:59;4.32;;;2.17;;
45103;SDS011;30865;51.288;4.572;2023-05-29T13:30:25;3.35;;;2.17;;
45103;SDS011;30865;51.288;4.572;2023-05-29T13:32:52;4.55;;;2.38;;
45103;SDS011;30865;51.288;4.572;2023-05-29T13:35:17;3.60;;;1.88;;
45103;SDS011;30865;51.288;4.572;2023-05-29T13:37:43;5.30;;;2.03;;
45103;SDS011;30865;51.288;4.572;2023-05-29T13:40:09;3.50;;;2.38;;
45103;SDS011;30865;51.288;4.572;2023-05-29T13:42:35;3.20;;;2.15;;
45103;SDS011;30865;51.288;4.572;2023-05-29T13:45:01;3.28;;;2.13;;
45103;SDS011;30865;51.288;4.572;2023-05-29T13:47:27;4.68;;;2.15;;
45103;SDS011;30865;51.288;4.572;2023-05-29T13:49:56;3.47;;;2.35;;
45103;SDS011;30865;51.288;4.572;2023-05-29T13:52:21;5.57;;;2.47;;
45103;SDS011;30865;51.288;4.572;2023-05-29T13:54:47;2.47;;;1.80;;
45103;SDS011;30865;51.288;4.572;2023-05-29T13:57:13;4.53;;;2.33;;
45103;SDS011;30865;51.288;4.572;2023-05-29T13:59:38;4.65;;;2.25;;
45103;SDS011;30865;51.288;4.572;2023-05-29T14:02:04;4.78;;;2.08;;
45103;SDS011;30865;51.288;4.572;2023-05-29T14:04:30;2.85;;;2.05;;
45103;SDS011;30865;51.288;4.572;2023-05-29T14:06:56;4.38;;;2.42;;
45103;SDS011;30865;51.288;4.572;2023-05-29T14:09:22;5.13;;;2.13;;
45103;SDS011;30865;51.288;4.572;2023-05-29T14:11:56;2.75;;;2.00;;
45103;SDS011;30865;51.288;4.572;2023-05-29T14:14:25;3.20;;;2.40;;
45103;SDS011;30865;51.288;4.572;2023-05-29T14:16:51;4.65;;;2.22;;
45103;SDS011;30865;51.288;4.572;2023-05-29T14:19:17;3.58;;;2.10;;
45103;SDS011;30865;51.288;4.572;2023-05-29T14:21:43;4.05;;;2.35;;
45103;SDS011;30865;51.288;4.572;2023-05-29T14:24:09;5.40;;;2.45;;
45103;SDS011;30865;51.288;4.572;2023-05-29T14:26:34;4.45;;;3.28;;
45103;SDS011;30865;51.288;4.572;2023-05-29T14:29:00;3.97;;;2.28;;
45103;SDS011;30865;51.288;4.572;2023-05-29T14:31:26;3.50;;;2.08;;
45103;SDS011;30865;51.288;4.572;2023-05-29T14:33:51;6.07;;;2.40;;
45103;SDS011;30865;51.288;4.572;2023-05-29T14:36:17;3.40;;;2.10;;
45103;SDS011;30865;51.288;4.572;2023-05-29T14:38:45;4.70;;;2.10;;
45103;SDS011;30865;51.288;4.572;2023-05-29T14:41:12;6.25;;;2.55;;
45103;SDS011;30865;51.288;4.572;2023-05-29T14:43:38;3.78;;;2.42;;
45103;SDS011;30865;51.288;4.572;2023-05-29T14:46:06;3.88;;;2.33;;
45103;SDS011;30865;51.288;4.572;2023-05-29T14:48:32;4.13;;;2.28;;
45103;SDS011;30865;51.288;4.572;2023-05-29T14:50:57;4.32;;;2.22;;
45103;SDS011;30865;51.288;4.572;2023-05-29T14:53:23;4.63;;;2.45;;
45103;SDS011;30865;51.288;4.572;2023-05-29T14:55:49;3.67;;;2.50;;
45103;SDS011;30865;51.288;4.572;2023-05-29T14:58:15;8.48;;;2.35;;
45103;SDS011;30865;51.288;4.572;2023-05-29T15:00:40;4.10;;;2.72;;
45103;SDS011;30865;51.288;4.572;2023-05-29T15:03:06;6.63;;;2.83;;
45103;SDS011;30865;51.288;4.572;2023-05-29T15:05:32;4.60;;;2.22;;
45103;SDS011;30865;51.288;4.572;2023-05-29T15:07:58;3.53;;;2.53;;
45103;SDS011;30865;51.288;4.572;2023-05-29T15:10:24;3.17;;;2.15;;
45103;SDS011;30865;51.288;4.572;2023-05-29T15:12:51;3.42;;;2.10;;
45103;SDS011;30865;51.288;4.572;2023-05-29T15:15:22;3.72;;;2.17;;
45103;SDS011;30865;51.288;4.572;2023-05-29T15:17:48;4.05;;;2.30;;
45103;SDS011;30865;51.288;4.572;2023-05-29T15:20:18;4.40;;;1.77;;
45103;SDS011;30865;51.288;4.572;2023-05-29T15:22:45;2.15;;;1.70;;
45103;SDS011;30865;51.288;4.572;2023-05-29T15:25:10;5.43;;;2.08;;